createdAt,value
2023-05-03T00:01:22.341Z,15.64
2023-05-03T00:05:34.789Z,15.23
2023-05-03T00:09:50.136Z,14.93
2023-05-03T00:14:02.552Z,14.96
2023-05-03T00:18:15.005Z,14.71
2023-05-03T00:22:27.740Z,14.51
2023-05-03T00:26:40.094Z,14.28
2023-05-03T00:30:53.549Z,14.32
2023-05-03T00:35:07.013Z,14.57
2023-05-03T00:39:19.402Z,14.41
2023-05-03T00:43:32.643Z,14.50
2023-05-03T00:47:45.580Z,14.93
2023-05-03T00:51:59.633Z,14.95
2023-05-03T00:56:13.482Z,15.92
2023-05-03T01:00:25.998Z,16.17
2023-05-03T01:04:39.348Z,16.26
2023-05-03T01:09:32.651Z,16.32
2023-05-03T01:13:56.573Z,16.53
2023-05-03T01:18:24.583Z,16.75
2023-05-03T01:22:58.529Z,16.77
2023-05-03T01:27:12.009Z,16.75
2023-05-03T01:31:34.161Z,16.82
2023-05-03T01:36:23.496Z,16.58
2023-05-03T01:40:58.648Z,16.35
2023-05-03T01:45:13.143Z,16.65
2023-05-03T01:49:25.667Z,16.49
2023-05-03T01:53:38.182Z,16.74
2023-05-03T01:57:50.663Z,16.61
2023-05-03T02:02:04.117Z,16.24
2023-05-03T02:06:16.531Z,15.60
2023-05-03T02:10:28.925Z,14.98
2023-05-03T02:14:41.522Z,14.73
2023-05-03T02:18:54.727Z,14.60
2023-05-03T02:23:07.302Z,14.52
2023-05-03T02:27:19.699Z,14.60
2023-05-03T02:31:32.206Z,14.50
2023-05-03T02:35:45.085Z,15.10
2023-05-03T02:39:57.523Z,15.46
2023-05-03T02:44:10.079Z,15.36
2023-05-03T02:48:24.017Z,15.83
2023-05-03T02:52:36.498Z,16.13
2023-05-03T02:56:49.316Z,16.38
2023-05-03T03:01:01.757Z,16.37
2023-05-03T03:05:17.805Z,16.40
2023-05-03T03:09:34.250Z,16.31
2023-05-03T03:13:50.664Z,16.27
2023-05-03T03:18:03.481Z,16.30
2023-05-03T03:22:16.030Z,15.97
2023-05-03T03:26:28.555Z,15.63
2023-05-03T03:30:41.204Z,16.11
2023-05-03T03:35:04.717Z,16.09
2023-05-03T03:39:17.283Z,15.87
2023-05-03T03:43:31.103Z,15.70
2023-05-03T03:47:44.866Z,15.46
2023-05-03T03:51:57.460Z,15.37
2023-05-03T03:56:09.924Z,15.41
2023-05-03T04:00:22.480Z,15.45
2023-05-03T04:04:42.632Z,15.79
2023-05-03T04:08:55.122Z,15.64
2023-05-03T04:13:07.933Z,15.59
2023-05-03T04:17:21.081Z,15.90
2023-05-03T04:21:33.669Z,16.39
2023-05-03T04:25:49.049Z,16.45
2023-05-03T04:30:04.655Z,16.78
2023-05-03T04:34:19.329Z,16.91
2023-05-03T04:38:34.639Z,17.11
2023-05-03T04:42:49.214Z,16.71
2023-05-03T04:47:03.087Z,16.72
2023-05-03T04:51:15.659Z,17.44
2023-05-03T04:55:29.881Z,18.09
2023-05-03T04:59:44.202Z,19.84
2023-05-03T05:03:57.082Z,20.89
2023-05-03T05:08:17.835Z,20.78
2023-05-03T05:12:35.965Z,20.25
2023-05-03T05:16:51.757Z,20.03
2023-05-03T05:21:04.762Z,19.90
2023-05-03T05:25:19.219Z,19.61
2023-05-03T05:29:32.632Z,19.59
2023-05-03T05:33:45.271Z,19.15
2023-05-03T05:37:58.385Z,18.84
2023-05-03T05:42:12.334Z,18.46
2023-05-03T05:46:25.691Z,18.72
2023-05-03T05:50:39.719Z,18.35
2023-05-03T05:54:55.883Z,18.23
2023-05-03T05:59:09.028Z,18.30
2023-05-03T06:03:21.710Z,18.01
2023-05-03T06:07:37.099Z,18.59
2023-05-03T06:11:49.612Z,18.77
2023-05-03T06:16:02.913Z,18.54
2023-05-03T06:20:16.829Z,19.25
2023-05-03T06:24:31.457Z,19.34
2023-05-03T06:28:46.100Z,18.96
2023-05-03T06:32:58.963Z,18.80
2023-05-03T06:37:11.771Z,19.08
2023-05-03T06:41:24.328Z,19.32
2023-05-03T06:45:36.822Z,19.24
2023-05-03T06:49:49.798Z,19.27
2023-05-03T06:54:12.788Z,19.44
2023-05-03T06:58:25.195Z,19.62
2023-05-03T07:02:37.914Z,19.47
2023-05-03T07:06:56.559Z,19.38
2023-05-03T07:11:10.308Z,19.35
2023-05-03T07:15:22.770Z,19.45
2023-05-03T07:19:35.358Z,19.29
2023-05-03T07:23:47.757Z,19.43
2023-05-03T07:28:00.637Z,19.42
2023-05-03T07:32:13.433Z,19.11
2023-05-03T07:36:26.524Z,18.92
2023-05-03T07:40:38.964Z,19.10
2023-05-03T07:44:52.416Z,19.58
2023-05-03T07:49:06.500Z,19.74
2023-05-03T07:53:18.776Z,19.44
2023-05-03T07:57:31.402Z,19.40
2023-05-03T08:01:43.957Z,19.43
2023-05-03T08:05:56.438Z,19.54
2023-05-03T08:10:09.003Z,19.25
2023-05-03T08:14:21.478Z,19.16
2023-05-03T08:18:33.932Z,19.85
2023-05-03T08:22:47.064Z,20.74
2023-05-03T08:26:59.568Z,20.64
2023-05-03T08:31:12.789Z,20.14
2023-05-03T08:35:25.683Z,19.93
2023-05-03T08:39:39.172Z,19.50
2023-05-03T08:43:54.869Z,19.41
2023-05-03T08:48:07.520Z,19.38
2023-05-03T08:52:24.031Z,19.29
2023-05-03T08:56:41.848Z,18.82
2023-05-03T09:00:54.224Z,19.28
2023-05-03T09:05:34.408Z,19.48
2023-05-03T09:09:49.661Z,20.08
2023-05-03T09:14:18.941Z,20.29
2023-05-03T09:18:31.392Z,19.86
2023-05-03T09:22:52.703Z,19.96
2023-05-03T09:27:19.529Z,20.64
2023-05-03T09:31:33.676Z,20.73
2023-05-03T09:36:00.632Z,20.70
2023-05-03T09:40:18.430Z,20.90
2023-05-03T09:44:51.982Z,20.69
2023-05-03T09:49:04.561Z,20.19
2023-05-03T09:53:20.400Z,19.73
2023-05-03T09:57:33.827Z,19.33
2023-05-03T10:01:48.002Z,18.32
2023-05-03T10:06:04.290Z,18.60
2023-05-03T10:10:16.905Z,19.18
2023-05-03T10:14:29.855Z,19.29
2023-05-03T10:18:49.732Z,19.03
2023-05-03T10:23:05.175Z,19.52
2023-05-03T10:27:17.685Z,19.90
2023-05-03T10:31:49.209Z,20.15
2023-05-03T10:36:06.882Z,20.56
2023-05-03T10:40:19.727Z,22.00
2023-05-03T10:44:39.650Z,23.03
2023-05-03T10:49:18.822Z,21.97
2023-05-03T10:53:34.203Z,22.04
2023-05-03T10:57:48.549Z,22.75
2023-05-03T11:02:01.368Z,22.74
2023-05-03T11:06:38.977Z,22.29
2023-05-03T11:10:58.144Z,22.11
2023-05-03T11:15:12.561Z,21.06
2023-05-03T11:19:25.734Z,22.47
2023-05-03T11:23:39.902Z,23.17
2023-05-03T11:27:52.298Z,23.57
2023-05-03T11:32:04.959Z,22.59
2023-05-03T11:36:17.640Z,23.14
2023-05-03T11:40:30.072Z,22.64
2023-05-03T11:44:42.564Z,23.21
2023-05-03T11:48:55.211Z,23.66
2023-05-03T11:53:08.085Z,23.25
2023-05-03T11:57:21.997Z,22.64
2023-05-03T12:01:35.108Z,23.32
2023-05-03T12:05:49.664Z,22.67
2023-05-03T12:15:03.498Z,25.40
2023-05-03T12:19:33.514Z,23.61
2023-05-03T12:23:50.014Z,25.03
2023-05-03T12:32:23.156Z,24.54
2023-05-03T12:36:37.732Z,24.48
2023-05-03T12:40:54.995Z,22.89
2023-05-03T12:45:12.028Z,22.25
2023-05-03T12:49:25.201Z,23.22
2023-05-03T12:53:39.002Z,22.53
2023-05-03T12:58:14.634Z,23.16
2023-05-03T13:06:43.073Z,24.18
2023-05-03T13:10:56.432Z,23.81
2023-05-03T13:15:09.723Z,23.51
2023-05-03T13:19:22.136Z,23.23
2023-05-03T13:23:34.620Z,22.54
2023-05-03T13:27:47.607Z,22.10
2023-05-03T13:32:00.205Z,22.53
2023-05-03T13:36:12.659Z,22.15
2023-05-03T13:40:25.196Z,22.56
2023-05-03T13:44:37.617Z,22.13
2023-05-03T13:48:50.100Z,19.78
2023-05-03T13:53:02.615Z,19.33
2023-05-03T13:57:15.391Z,18.61
2023-05-03T14:01:29.201Z,18.30
2023-05-03T14:05:41.651Z,17.89
2023-05-03T14:09:54.002Z,18.02
2023-05-03T14:14:06.544Z,17.95
2023-05-03T14:18:19.012Z,17.73
2023-05-03T14:22:33.944Z,17.64
2023-05-03T14:26:46.566Z,17.51
2023-05-03T14:30:58.999Z,17.45
2023-05-03T14:35:11.570Z,17.40
2023-05-03T14:39:27.087Z,17.17
2023-05-03T14:43:39.593Z,17.22
2023-05-03T14:47:52.003Z,17.38
2023-05-03T14:52:04.665Z,17.59
2023-05-03T14:56:17.093Z,17.80
2023-05-03T15:00:29.546Z,17.98
2023-05-03T15:04:42.038Z,17.78
2023-05-03T15:08:55.332Z,17.31
2023-05-03T15:13:08.710Z,17.37
2023-05-03T15:17:21.348Z,17.93
2023-05-03T15:21:45.482Z,17.61
2023-05-03T15:26:00.602Z,17.24
2023-05-03T15:30:15.082Z,17.10
2023-05-03T15:34:27.753Z,17.58
2023-05-03T15:38:41.233Z,17.93
2023-05-03T15:42:53.775Z,17.43
2023-05-03T15:47:07.675Z,17.16
2023-05-03T15:51:22.397Z,17.31
2023-05-03T15:55:35.027Z,17.23
2023-05-03T15:59:48.695Z,17.31
2023-05-03T16:04:01.394Z,17.13
2023-05-03T16:08:14.004Z,17.12
2023-05-03T16:12:29.482Z,17.13
2023-05-03T16:16:42.249Z,16.88
2023-05-03T16:20:55.001Z,17.33
2023-05-03T16:25:13.592Z,17.29
2023-05-03T16:29:26.060Z,17.49
2023-05-03T16:33:38.642Z,17.58
2023-05-03T16:37:51.660Z,17.07
2023-05-03T16:42:04.188Z,17.16
2023-05-03T16:46:16.753Z,16.96
2023-05-03T16:50:29.231Z,16.87
2023-05-03T16:54:43.607Z,16.82
2023-05-03T16:58:56.741Z,16.60
2023-05-03T17:03:09.371Z,16.50
2023-05-03T17:07:22.515Z,16.43
2023-05-03T17:11:36.420Z,16.31
2023-05-03T17:15:49.072Z,16.24
2023-05-03T17:20:01.687Z,16.15
2023-05-03T17:24:14.236Z,16.08
2023-05-03T17:28:27.201Z,15.98
2023-05-03T17:32:39.693Z,15.88
2023-05-03T17:36:52.261Z,15.83
2023-05-03T17:41:08.272Z,15.81
2023-05-03T17:45:20.563Z,15.70
2023-05-03T17:49:35.888Z,15.73
2023-05-03T17:53:48.409Z,15.73
2023-05-03T17:58:00.850Z,15.80
2023-05-03T18:02:13.791Z,15.78
2023-05-03T18:06:27.068Z,15.87
2023-05-03T18:10:42.096Z,15.77
2023-05-03T18:14:59.744Z,15.69
2023-05-03T18:19:13.060Z,15.58
2023-05-03T18:23:25.488Z,15.47
2023-05-03T18:27:38.065Z,15.44
2023-05-03T18:31:58.706Z,15.38
2023-05-03T18:36:12.335Z,15.19
2023-05-03T18:40:25.503Z,15.08
2023-05-03T18:44:39.878Z,15.02
2023-05-03T18:48:53.898Z,15.29
2023-05-03T18:53:06.798Z,15.36
2023-05-03T18:57:20.277Z,15.35
2023-05-03T19:01:32.789Z,15.40
2023-05-03T19:05:45.358Z,15.24
2023-05-03T19:09:58.099Z,15.17
2023-05-03T19:14:10.659Z,15.27
2023-05-03T19:18:23.099Z,15.37
2023-05-03T19:22:35.377Z,15.37
2023-05-03T19:26:47.882Z,15.32
2023-05-03T19:31:04.517Z,15.36
2023-05-03T19:35:20.885Z,15.33
2023-05-03T19:39:36.010Z,15.30
2023-05-03T19:43:48.473Z,15.34
2023-05-03T19:48:01.080Z,15.25
2023-05-03T19:52:13.514Z,15.17
2023-05-03T19:56:25.977Z,15.06
2023-05-03T20:00:39.017Z,15.06
2023-05-03T20:04:51.513Z,15.08
2023-05-03T20:09:06.830Z,14.99
2023-05-03T20:13:19.421Z,14.91
2023-05-03T20:17:31.897Z,15.01
2023-05-03T20:21:46.238Z,14.95
2023-05-03T20:26:02.007Z,14.97
2023-05-03T20:30:18.161Z,15.02
2023-05-03T20:34:33.629Z,15.02
2023-05-03T20:38:46.204Z,15.05
2023-05-03T20:42:58.612Z,15.04
2023-05-03T20:47:11.069Z,15.04
2023-05-03T20:51:23.749Z,15.06
2023-05-03T20:55:36.124Z,15.06
2023-05-03T20:59:48.687Z,15.15
2023-05-03T21:04:01.350Z,15.14
2023-05-03T21:08:13.658Z,15.13
2023-05-03T21:12:26.272Z,15.15
2023-05-03T21:16:38.698Z,15.16
2023-05-03T21:20:53.905Z,15.26
2023-05-03T21:25:06.916Z,15.30
2023-05-03T21:29:19.247Z,15.26
2023-05-03T21:33:31.688Z,15.20
2023-05-03T21:37:46.401Z,15.18
2023-05-03T21:41:59.542Z,15.20
2023-05-03T21:46:11.941Z,15.23
2023-05-03T21:50:24.486Z,15.18
2023-05-03T21:54:36.848Z,15.13
2023-05-03T21:58:49.346Z,15.06
2023-05-03T22:03:01.883Z,14.88
2023-05-03T22:07:15.064Z,14.81
2023-05-03T22:11:28.451Z,14.74
2023-05-03T22:15:40.856Z,14.76
2023-05-03T22:19:53.364Z,14.83
2023-05-03T22:24:06.096Z,14.83
2023-05-03T22:28:18.583Z,14.75
2023-05-03T22:32:31.103Z,14.71
2023-05-03T22:36:43.350Z,14.77
2023-05-03T22:40:55.738Z,14.73
2023-05-03T22:45:08.820Z,14.70
2023-05-03T22:49:21.191Z,14.75
2023-05-03T22:53:33.540Z,14.78
2023-05-03T22:57:46.022Z,14.81
2023-05-03T23:01:58.524Z,14.77
2023-05-03T23:06:11.036Z,14.75
2023-05-03T23:10:23.548Z,14.81
2023-05-03T23:14:36.036Z,14.73
2023-05-03T23:18:48.791Z,14.55
2023-05-03T23:23:01.178Z,14.55
2023-05-03T23:27:13.662Z,14.44
2023-05-03T23:31:31.433Z,14.37
2023-05-03T23:35:45.418Z,14.26
2023-05-03T23:39:57.811Z,14.41
2023-05-03T23:44:12.428Z,14.58
2023-05-03T23:48:24.964Z,14.52
2023-05-03T23:52:37.661Z,14.61
2023-05-03T23:56:50.238Z,14.43
